ilmateenistus.ee keskkonnaagentuur.ee
EETN Tallinn
FTEO31 EETN 152300
TAF EETN 152330Z 1600/1624 13008KT CAVOK=

METAR EETN 152350Z 11006KT CAVOK 19/17 Q1017=
Tallinn
EEKA Kärdla
METAR EEKA 152350Z NIL=
Kärdla
EEKE Kuressaare
METAR EEKE 152350Z AUTO 14010KT 9999NDV NCD 23/20 Q1014=
Kuressaare
EEPU Pärnu
METAR EEPU 152350Z AUTO 09005KT 9999 NCD 20/17 Q1016=
Pärnu
EETU Tartu
METAR EETU 152350Z AUTO 12003KT 5000 NCD 20/17 Q1017=
Tartu
EEEI Ämari
METAR EEEI 152353Z 12006KT CAVOK 21/18 Q1016=
Ämari